Time;durP1;ratioP1;P1;durP2;ratioP2;P2;SDS_P1;SDS_P2;PMS_P1;PMS_P2;Temp;Humidity;BMP_temperature;BMP_pressure;BME280_temperature;BME280_humidity;BME280_pressure;Samples;Min_cycle;Max_cycle;Signal;HPM_P1;HPM_P2
2021/12/22 00:02:22;;;;;;;66.88;27.83;;;;;;;0.45;84.58;101251.97;5068440;28;20123;-69
2021/12/22 00:04:49;;;;;;;51.50;24.83;;;;;;;0.45;84.82;101256.28;5065902;28;20033;-71
2021/12/22 00:07:15;;;;;;;61.72;24.95;;;;;;;0.46;84.80;101255.41;5070119;28;20032;-72
2021/12/22 00:09:42;;;;;;;57.38;24.30;;;;;;;0.44;84.85;101255.41;5063892;28;20036;-69
2021/12/22 00:12:08;;;;;;;59.45;24.40;;;;;;;0.48;85.16;101263.97;5068738;28;20074;-71
2021/12/22 00:14:33;;;;;;;57.17;23.63;;;;;;;0.53;85.05;101258.78;5061254;28;20611;-70
2021/12/22 00:16:58;;;;;;;56.53;25.63;;;;;;;0.52;84.52;101255.34;5062061;28;20035;-69
2021/12/22 00:19:24;;;;;;;58.95;25.48;;;;;;;0.51;84.94;101263.09;5063609;28;20033;-68
2021/12/22 00:21:49;;;;;;;58.28;24.98;;;;;;;0.51;84.60;101269.09;5060090;28;20036;-69
2021/12/22 00:24:14;;;;;;;54.35;24.02;;;;;;;0.53;84.89;101267.38;5059927;28;20083;-68
2021/12/22 00:26:40;;;;;;;56.15;23.60;;;;;;;0.55;85.21;101273.34;5064550;28;20033;-70
2021/12/22 00:29:06;;;;;;;60.67;24.77;;;;;;;0.55;84.79;101272.50;5058077;28;20463;-70
2021/12/22 00:31:40;;;;;;;49.33;22.63;;;;;;;0.52;84.82;101267.38;5068133;28;20401;-70
2021/12/22 00:34:06;;;;;;;55.10;23.65;;;;;;;0.53;84.76;101272.53;5063983;28;20029;-70
2021/12/22 00:36:32;;;;;;;52.45;21.33;;;;;;;0.52;84.55;101275.09;5064791;28;20024;-70
2021/12/22 00:38:57;;;;;;;56.45;22.05;;;;;;;0.51;84.54;101273.41;5069549;28;20044;-70
2021/12/22 00:41:22;;;;;;;56.83;24.13;;;;;;;0.48;84.04;101270.00;5062658;28;20041;-69
2021/12/22 00:46:15;;;;;;;55.03;23.05;;;;;;;0.42;84.64;101270.06;5069004;28;20039;-67
2021/12/22 00:48:40;;;;;;;56.10;25.20;;;;;;;0.41;84.50;101272.66;5062247;28;20021;-67
2021/12/22 00:51:06;;;;;;;51.67;22.70;;;;;;;0.42;84.65;101271.78;5070096;28;20019;-67
2021/12/22 00:53:31;;;;;;;50.47;22.17;;;;;;;0.43;84.99;101268.31;5072155;28;20044;-64
2021/12/22 00:55:57;;;;;;;51.50;21.45;;;;;;;0.44;84.79;101272.59;5070753;28;20029;-67
2021/12/22 00:58:22;;;;;;;52.95;22.70;;;;;;;0.44;84.91;101277.75;5045786;28;20561;-65
2021/12/22 01:00:49;;;;;;;52.60;21.92;;;;;;;0.40;85.32;101273.50;5061192;28;20028;-66
2021/12/22 01:03:16;;;;;;;54.25;24.35;;;;;;;0.38;84.91;101277.84;5039924;28;20052;-65
2021/12/22 01:05:41;;;;;;;49.97;22.55;;;;;;;0.36;85.32;101276.97;5069553;28;20036;-63
2021/12/22 01:08:07;;;;;;;53.75;23.33;;;;;;;0.31;85.47;101277.03;5063986;28;20044;-66
2021/12/22 01:10:33;;;;;;;52.53;23.08;;;;;;;0.26;85.42;101278.81;5050411;28;20033;-66
2021/12/22 01:13:02;;;;;;;53.53;22.40;;;;;;;0.22;85.76;101283.13;5045720;28;20033;-64
2021/12/22 01:15:29;;;;;;;55.50;24.27;;;;;;;0.18;86.16;101275.41;5070184;28;20532;-66
2021/12/22 01:18:14;;;;;;;51.05;22.75;;;;;;;0.16;86.17;101272.00;5069808;28;20545;-66
2021/12/22 01:23:26;;;;;;;55.28;22.98;;;;;;;0.10;86.38;101284.94;5041947;28;20047;-63
2021/12/22 01:25:52;;;;;;;62.83;24.30;;;;;;;0.08;86.68;101284.13;5064766;28;20093;-65
2021/12/22 01:28:22;;;;;;;50.15;22.15;;;;;;;0.07;86.77;101277.22;5057671;28;20037;-64
2021/12/22 01:30:48;;;;;;;52.88;23.33;;;;;;;0.05;86.95;101284.97;5042981;28;20021;-64
2021/12/22 01:33:15;;;;;;;55.60;24.42;;;;;;;0.06;87.15;101286.69;5058675;28;20086;-65
2021/12/22 01:35:42;;;;;;;55.70;24.27;;;;;;;0.08;87.14;101284.97;5039902;28;20091;-65
2021/12/22 01:38:07;;;;;;;62.13;23.80;;;;;;;0.07;87.26;101279.81;5044274;28;20070;-63
2021/12/22 01:40:36;;;;;;;57.97;24.10;;;;;;;0.07;87.40;101277.22;5069774;28;20037;-65
2021/12/22 01:43:04;;;;;;;49.80;23.77;;;;;;;0.07;87.30;101283.22;5068124;28;20501;-66
2021/12/22 01:51:05;;;;;;;52.13;23.13;;;;;;;0.01;87.64;101279.88;5065177;28;20031;-66
2021/12/22 01:53:38;;;;;;;51.67;23.55;;;;;;;0.06;87.15;101283.25;5050849;28;20036;-67
2021/12/22 01:56:18;;;;;;;51.22;23.33;;;;;;;0.06;87.35;101283.25;5049491;28;20036;-66
2021/12/22 01:58:46;;;;;;;55.00;25.00;;;;;;;0.05;87.42;101286.72;5068885;28;20039;-66
2021/12/22 02:01:12;;;;;;;64.13;24.58;;;;;;;0.08;87.79;101290.13;5050846;28;20029;-66
2021/12/22 02:03:39;;;;;;;57.08;25.48;;;;;;;0.10;87.30;101282.34;5050260;28;20382;-65
2021/12/22 02:06:05;;;;;;;61.63;25.05;;;;;;;0.09;87.07;101291.81;5069120;28;20027;-63
2021/12/22 02:08:43;;;;;;;59.33;24.58;;;;;;;0.06;87.46;101278.94;5066865;28;20056;-67
2021/12/22 02:11:08;;;;;;;60.70;24.67;;;;;;;0.07;87.94;101284.97;5050976;28;20028;-63
2021/12/22 02:13:38;;;;;;;65.38;25.60;;;;;;;0.10;87.68;101278.06;5067121;28;20036;-65
2021/12/22 02:16:07;;;;;;;58.60;23.55;;;;;;;0.12;87.64;101276.34;5069291;28;20056;-67
2021/12/22 02:18:34;;;;;;;;;;;;;;;0.17;87.52;101276.28;5069308;28;20090;-66
2021/12/22 02:20:59;;;;;;;61.22;25.67;;;;;;;0.21;87.42;101281.41;5069304;28;19910;-64
2021/12/22 02:23:25;;;;;;;63.35;25.98;;;;;;;0.20;87.37;101282.28;5050300;28;20131;-66
2021/12/22 02:25:55;;;;;;;58.38;24.13;;;;;;;0.22;87.23;101280.56;5063914;28;20051;-64
2021/12/22 02:28:25;;;;;;;65.43;24.80;;;;;;;0.27;87.51;101280.50;5060518;28;20047;-65
2021/12/22 02:30:52;;;;;;;59.50;24.80;;;;;;;0.28;87.07;101274.47;5046212;28;20098;-65
2021/12/22 02:33:39;;;;;;;59.70;25.00;;;;;;;0.29;87.04;101273.59;5062779;28;20027;-65
2021/12/22 02:38:37;;;;;;;57.58;25.20;;;;;;;0.32;86.83;101272.72;5061024;28;20044;-64
2021/12/22 02:41:04;;;;;;;59.70;23.65;;;;;;;0.35;86.56;101280.44;5068246;28;20036;-64
2021/12/22 02:43:32;;;;;;;59.53;25.67;;;;;;;0.37;86.56;101278.69;5067308;28;20056;-66
2021/12/22 02:45:59;;;;;;;53.55;24.30;;;;;;;0.37;86.78;101277.00;5063555;28;20036;-66
2021/12/22 02:48:29;;;;;;;62.10;25.02;;;;;;;0.37;87.01;101274.41;5050015;28;20551;-64
2021/12/22 02:50:56;;;;;;;61.10;25.38;;;;;;;0.36;86.69;101276.97;5063361;28;20541;-64
2021/12/22 02:53:27;;;;;;;60.83;25.70;;;;;;;0.36;86.34;101276.97;5060666;28;20069;-66
2021/12/22 02:56:04;;;;;;;54.30;23.05;;;;;;;0.34;85.73;101269.28;5042257;28;20032;-67
2021/12/22 02:58:49;;;;;;;49.97;23.08;;;;;;;0.30;85.07;101274.44;5054258;28;20052;-67
2021/12/22 03:06:27;;;;;;;46.88;20.60;;;;;;;0.31;84.29;101282.19;5068347;28;20024;-66
2021/12/22 03:08:53;;;;;;;39.15;19.48;;;;;;;0.30;83.66;101285.66;5062476;28;20041;-66
2021/12/22 03:11:18;;;;;;;45.50;20.63;;;;;;;0.23;83.30;101284.00;5065465;28;20410;-66
2021/12/22 03:13:43;;;;;;;61.72;20.73;;;;;;;0.22;83.26;101288.28;5066232;28;20116;-67
2021/12/22 03:16:09;;;;;;;37.83;17.48;;;;;;;0.23;81.29;101292.56;5050274;28;20032;-65
2021/12/22 03:18:34;;;;;;;35.13;16.33;;;;;;;0.23;80.87;101300.31;5049541;28;20052;-65
2021/12/22 03:21:12;;;;;;;35.95;16.60;;;;;;;0.22;80.62;101290.88;5050434;28;20283;-63
2021/12/22 03:23:38;;;;;;;34.90;15.95;;;;;;;0.18;80.14;101284.00;5066724;28;20073;-65
2021/12/22 03:26:03;;;;;;;30.20;16.63;;;;;;;0.17;79.68;101284.03;5043556;28;20036;-64
2021/12/22 03:28:29;;;;;;;31.77;14.35;;;;;;;0.16;78.80;101280.59;5060283;28;20575;-65
2021/12/22 03:30:56;;;;;;;31.17;15.48;;;;;;;0.13;79.23;101274.59;5067908;28;20071;-65
2021/12/22 03:33:21;;;;;;;31.85;15.50;;;;;;;0.12;79.17;101281.50;5067271;28;20479;-63
2021/12/22 03:35:46;;;;;;;33.40;14.45;;;;;;;0.06;79.17;101278.94;5067514;28;20044;-65
2021/12/22 03:38:12;;;;;;;30.52;14.77;;;;;;;0.04;79.00;101275.53;5048016;28;20050;-66
2021/12/22 03:40:37;;;;;;;31.48;14.35;;;;;;;0.01;78.89;101275.56;5060358;28;20082;-66
2021/12/22 03:43:02;;;;;;;30.90;14.65;;;;;;;0.01;79.25;101274.72;5060709;28;20572;-67
2021/12/22 03:45:28;;;;;;;34.78;14.35;;;;;;;-0.02;79.16;101279.00;5058372;28;20060;-66
2021/12/22 03:47:54;;;;;;;28.67;14.30;;;;;;;-0.06;79.19;101274.75;5043528;28;20040;-65
2021/12/22 03:50:19;;;;;;;28.23;14.27;;;;;;;-0.10;79.41;101274.78;5062774;28;20036;-66
2021/12/22 03:52:46;;;;;;;25.85;12.50;;;;;;;-0.18;79.04;101281.72;5048738;28;20119;-65
2021/12/22 03:55:12;;;;;;;32.60;12.88;;;;;;;-0.23;78.83;101278.31;5049699;28;20033;-65
2021/12/22 03:57:37;;;;;;;23.80;12.07;;;;;;;-0.27;78.12;101280.88;5065653;28;20039;-66
2021/12/22 04:00:07;;;;;;;36.53;12.18;;;;;;;-0.33;78.03;101283.53;5049813;28;20032;-65
2021/12/22 04:02:33;;;;;;;20.27;9.98;;;;;;;-0.37;77.55;101284.41;5066529;28;20032;-64
2021/12/22 04:04:59;;;;;;;33.30;11.07;;;;;;;-0.38;77.20;101287.84;5066947;28;20029;-67
2021/12/22 04:07:24;;;;;;;30.08;11.02;;;;;;;-0.38;76.88;101286.97;5045882;28;20032;-66
2021/12/22 04:09:49;;;;;;;21.95;9.95;;;;;;;-0.42;77.48;101282.72;5064509;28;20055;-64
2021/12/22 04:12:15;;;;;;;23.55;11.10;;;;;;;-0.44;77.33;101276.72;5069440;28;20735;-64
2021/12/22 04:14:40;;;;;;;23.15;10.70;;;;;;;-0.42;77.41;101283.56;5066872;28;20493;-62
2021/12/22 04:17:05;;;;;;;29.35;9.73;;;;;;;-0.46;77.62;101281.88;5064632;28;20028;-66
2021/12/22 04:19:31;;;;;;;19.05;9.30;;;;;;;-0.50;77.32;101280.19;5051873;28;20056;-64
2021/12/22 04:21:56;;;;;;;18.92;9.07;;;;;;;-0.52;77.45;101279.31;5063655;28;20033;-66
2021/12/22 04:24:22;;;;;;;21.23;9.65;;;;;;;-0.56;77.48;101281.06;5048549;28;20030;-65
2021/12/22 04:26:48;;;;;;;19.98;9.77;;;;;;;-0.59;78.08;101272.53;5068038;28;20040;-66
2021/12/22 04:29:14;;;;;;;18.92;8.88;;;;;;;-0.61;78.35;101279.38;5043722;28;20425;-66
2021/12/22 04:31:39;;;;;;;19.73;10.13;;;;;;;-0.67;78.32;101272.53;5050591;28;20407;-63
2021/12/22 04:34:08;;;;;;;20.05;9.27;;;;;;;-0.70;78.46;101270.00;5047550;28;20032;-66
2021/12/22 04:36:38;;;;;;;19.85;9.55;;;;;;;-0.78;78.73;101271.72;5052194;28;20154;-65
2021/12/22 04:39:05;;;;;;;19.05;9.88;;;;;;;-0.84;78.71;101264.03;5068653;28;20028;-65
2021/12/22 04:41:30;;;;;;;24.48;10.40;;;;;;;-0.94;78.99;101254.63;5060429;28;20168;-64
2021/12/22 04:43:56;;;;;;;18.55;10.23;;;;;;;-1.00;78.92;101258.97;5067037;28;20108;-65
2021/12/22 04:46:23;;;;;;;16.05;8.50;;;;;;;-1.02;78.82;101262.38;5070605;28;20025;-64
2021/12/22 04:48:48;;;;;;;19.10;8.18;;;;;;;-1.05;78.59;101264.97;5070172;28;20406;-65
2021/12/22 04:51:24;;;;;;;24.85;8.32;;;;;;;-1.09;79.23;101268.41;5064568;28;20087;-65
2021/12/22 04:53:58;;;;;;;18.15;8.60;;;;;;;-1.13;79.29;101265.00;5068604;28;20039;-65
2021/12/22 04:56:23;;;;;;;27.42;11.32;;;;;;;-1.22;79.59;101275.34;5065350;28;20033;-65
2021/12/22 04:58:49;;;;;;;42.88;12.63;;;;;;;-1.29;79.83;101261.63;5045754;28;20036;-63
2021/12/22 05:01:14;;;;;;;23.45;10.25;;;;;;;-1.34;80.31;101268.47;5069857;28;20036;-62
2021/12/22 05:03:41;;;;;;;23.95;10.30;;;;;;;-1.36;80.41;101267.63;5065302;28;20085;-65
2021/12/22 05:06:06;;;;;;;17.70;9.60;;;;;;;-1.41;80.58;101265.91;5069211;28;20020;-66
2021/12/22 05:08:31;;;;;;;21.67;8.85;;;;;;;-1.45;80.83;101270.22;5067310;28;20089;-63
2021/12/22 05:10:57;;;;;;;20.90;9.00;;;;;;;-1.50;80.96;101261.66;5068942;28;20339;-66
2021/12/22 05:13:22;;;;;;;20.95;8.75;;;;;;;-1.52;81.52;101261.69;5064719;28;20045;-65
2021/12/22 05:15:47;;;;;;;16.63;8.00;;;;;;;-1.49;81.28;101261.66;5066107;28;20095;-65
2021/12/22 05:20:38;;;;;;;17.20;8.90;;;;;;;-1.58;81.96;101258.25;5068941;28;20674;-65
2021/12/22 05:23:03;;;;;;;15.27;7.55;;;;;;;-1.68;82.17;101247.09;5057062;28;20116;-65
2021/12/22 05:25:29;;;;;;;14.63;6.70;;;;;;;-1.74;82.71;101248.00;5064305;28;20498;-64
2021/12/22 05:27:54;;;;;;;14.90;7.10;;;;;;;-1.79;82.23;101249.69;5050485;28;20501;-66
2021/12/22 05:30:19;;;;;;;18.00;8.45;;;;;;;-1.84;82.56;101253.13;5069502;28;20025;-65
2021/12/22 05:32:46;;;;;;;20.83;7.47;;;;;;;-1.85;82.76;101244.56;5066193;28;20103;-66
2021/12/22 05:35:11;;;;;;;16.52;8.38;;;;;;;-1.87;82.84;101248.84;5050737;28;20037;-63
2021/12/22 05:37:37;;;;;;;17.45;8.68;;;;;;;-1.90;82.90;101243.69;5068182;28;20076;-65
2021/12/22 05:40:04;;;;;;;16.58;7.85;;;;;;;-1.90;83.25;101245.41;5044731;28;20036;-63
2021/12/22 05:42:29;;;;;;;25.65;9.98;;;;;;;-1.95;83.42;101242.84;5058803;28;20032;-67
2021/12/22 05:44:55;;;;;;;20.90;9.05;;;;;;;-2.00;83.49;101245.44;5046365;28;20094;-66
2021/12/22 05:47:20;;;;;;;17.75;8.18;;;;;;;-2.02;83.92;101243.72;5063676;28;20025;-62
2021/12/22 05:49:48;;;;;;;19.95;9.43;;;;;;;-2.04;84.20;101237.69;5060157;28;20475;-66
2021/12/22 05:52:13;;;;;;;20.77;10.13;;;;;;;-2.02;84.09;101236.00;5068770;28;20136;-63
2021/12/22 05:54:39;;;;;;;20.35;10.23;;;;;;;-2.03;84.01;101240.28;5051292;28;20135;-66
2021/12/22 05:57:05;;;;;;;22.35;10.07;;;;;;;-1.98;83.89;101243.69;5064952;28;20474;-66
2021/12/22 05:59:30;;;;;;;22.27;11.32;;;;;;;-1.90;83.82;101242.84;5046755;28;20526;-64
2021/12/22 06:01:56;;;;;;;20.98;10.40;;;;;;;-1.79;83.35;101238.56;5068757;28;20033;-65
2021/12/22 06:04:21;;;;;;;22.83;11.45;;;;;;;-1.68;83.00;101244.53;5068663;28;20026;-65
2021/12/22 06:06:47;;;;;;;27.23;12.68;;;;;;;-1.57;82.61;101247.94;5067317;28;20024;-67
2021/12/22 06:09:12;;;;;;;20.15;11.30;;;;;;;-1.44;81.93;101251.38;5068206;28;20428;-64
2021/12/22 06:11:37;;;;;;;21.40;11.70;;;;;;;-1.37;81.87;101247.94;5065866;28;20032;-64
2021/12/22 06:14:03;;;;;;;22.05;12.55;;;;;;;-1.19;86.39;101246.16;5043839;28;20040;-66
2021/12/22 06:16:30;;;;;;;28.98;15.13;;;;;;;-0.56;90.55;101254.44;5063570;28;20032;-66
2021/12/22 06:19:02;;;;;;;31.75;13.50;;;;;;;-0.47;83.31;101253.56;5068281;28;20398;-66
2021/12/22 06:21:28;;;;;;;22.95;12.93;;;;;;;-0.63;80.36;101263.06;5067078;28;20135;-66
2021/12/22 06:23:53;;;;;;;18.10;10.82;;;;;;;-0.73;79.94;101268.28;5068618;28;20087;-68
2021/12/22 06:26:18;;;;;;;27.27;12.18;;;;;;;-0.79;79.99;101259.72;5067605;28;20029;-67
2021/12/22 06:28:44;;;;;;;32.42;13.48;;;;;;;-0.87;80.11;101257.19;5063978;28;20528;-66
2021/12/22 06:31:09;;;;;;;25.75;13.10;;;;;;;-0.90;80.04;101270.06;5061954;28;20029;-65
2021/12/22 06:33:35;;;;;;;22.77;13.43;;;;;;;-0.92;79.95;101263.22;5061563;28;20650;-66
2021/12/22 06:36:01;;;;;;;22.75;12.60;;;;;;;-0.97;80.12;101266.66;5068596;28;20028;-64
2021/12/22 06:38:26;;;;;;;22.05;12.85;;;;;;;-0.98;80.47;101267.50;5068770;28;20105;-66
2021/12/22 06:40:52;;;;;;;22.58;12.25;;;;;;;-0.96;80.37;101257.22;5067119;28;20032;-66
2021/12/22 06:43:18;;;;;;;21.85;12.23;;;;;;;-0.95;80.12;101266.66;5062052;28;20035;-66
2021/12/22 06:45:43;;;;;;;24.45;13.10;;;;;;;-0.98;80.38;101275.25;5056370;28;20103;-65
2021/12/22 06:48:08;;;;;;;36.75;13.35;;;;;;;-0.98;80.76;101274.38;5044190;28;20040;-65
2021/12/22 06:50:34;;;;;;;24.80;11.77;;;;;;;-0.98;80.19;101269.25;5058221;28;20036;-65
2021/12/22 06:52:59;;;;;;;24.52;13.02;;;;;;;-0.99;80.23;101276.09;5059487;28;20033;-63
2021/12/22 06:55:25;;;;;;;25.15;13.23;;;;;;;-0.97;80.27;101278.66;5062399;28;20066;-64
2021/12/22 06:57:50;;;;;;;26.33;12.57;;;;;;;-0.99;79.97;101282.97;5063614;28;20048;-65
2021/12/22 07:00:16;;;;;;;22.40;12.63;;;;;;;-1.06;80.27;101283.84;5061416;28;20032;-63
2021/12/22 07:02:41;;;;;;;23.77;12.07;;;;;;;-1.16;80.57;101284.75;5067768;28;20074;-66
2021/12/22 07:05:09;;;;;;;26.17;10.70;;;;;;;-1.23;80.91;101289.88;5097577;22;20060;-67
2021/12/22 07:07:36;;;;;;;20.42;11.10;;;;;;;-1.30;81.22;101290.78;5107154;28;20047;-68
2021/12/22 07:10:03;;;;;;;21.90;11.90;;;;;;;-1.40;82.12;101296.81;5097562;28;20028;-68
2021/12/22 07:12:28;;;;;;;24.23;11.55;;;;;;;-1.46;82.42;101297.66;5103731;28;20042;-68
2021/12/22 07:14:54;;;;;;;22.15;11.98;;;;;;;-1.54;82.29;101293.38;5098076;28;20039;-67
2021/12/22 07:17:19;;;;;;;18.75;10.77;;;;;;;-1.61;82.81;101289.97;5097759;28;20035;-68
2021/12/22 07:19:44;;;;;;;23.70;12.23;;;;;;;-1.66;82.43;101289.13;5103237;28;20043;-68
2021/12/22 07:22:10;;;;;;;30.50;12.63;;;;;;;-1.69;82.77;101288.25;5099715;28;20047;-67
2021/12/22 07:24:35;;;;;;;22.13;12.07;;;;;;;-1.75;82.79;101286.53;5099657;28;20032;-67
2021/12/22 07:27:01;;;;;;;22.25;12.38;;;;;;;-1.80;83.48;101289.13;5096538;28;20564;-69
2021/12/22 07:29:26;;;;;;;25.23;13.25;;;;;;;-1.85;83.22;101293.41;5096006;28;20052;-68
2021/12/22 07:31:52;;;;;;;27.35;13.20;;;;;;;-1.87;82.91;101289.13;5096390;28;20039;-68
2021/12/22 07:34:46;;;;;;;23.48;12.65;;;;;;;-1.92;83.17;101289.13;5097258;28;20496;-71
2021/12/22 07:37:19;;;;;;;21.35;12.48;;;;;;;-1.94;83.46;101288.25;5097741;28;20032;-69
2021/12/22 07:39:44;;;;;;;27.00;12.60;;;;;;;-1.95;83.79;101291.69;5097197;28;20031;-68
2021/12/22 07:42:09;;;;;;;27.45;13.80;;;;;;;-1.96;83.53;101293.41;5100644;28;20373;-68
2021/12/22 07:44:34;;;;;;;27.20;15.02;;;;;;;-2.00;84.09;101290.84;5098334;28;20140;-68
2021/12/22 07:47:00;;;;;;;28.50;14.07;;;;;;;-2.00;84.24;101288.25;5099920;28;20078;-68
2021/12/22 07:49:25;;;;;;;26.67;13.80;;;;;;;-2.04;84.47;101294.22;5106948;28;20507;-69
2021/12/22 07:51:51;;;;;;;26.55;15.13;;;;;;;-2.05;84.86;101302.81;5099423;28;20478;-67
2021/12/22 07:54:16;;;;;;;33.47;15.48;;;;;;;-2.08;85.04;101302.78;5093801;28;20031;-67
2021/12/22 07:56:41;;;;;;;29.00;15.80;;;;;;;-2.09;85.09;101301.09;5093754;28;20105;-71
2021/12/22 07:59:07;;;;;;;36.15;16.88;;;;;;;-2.08;85.48;101298.50;5102143;27;20023;-68
2021/12/22 08:01:32;;;;;;;29.73;15.07;;;;;;;-2.07;85.49;101296.81;5098492;28;20044;-68
2021/12/22 08:03:58;;;;;;;32.53;16.80;;;;;;;-2.05;85.61;101287.38;5097885;28;20062;-68
2021/12/22 08:06:24;;;;;;;38.08;17.80;;;;;;;-2.00;85.29;101294.25;5098489;28;20089;-68
2021/12/22 08:08:49;;;;;;;36.67;16.80;;;;;;;-1.98;85.30;101295.09;5093304;28;20039;-69
2021/12/22 08:11:14;;;;;;;30.02;15.02;;;;;;;-1.92;85.06;101304.53;5099329;28;20094;-70
2021/12/22 08:13:40;;;;;;;33.90;17.20;;;;;;;-1.89;85.29;101294.28;5102401;28;20114;-66
2021/12/22 08:16:05;;;;;;;34.90;18.13;;;;;;;-1.83;85.28;101303.69;5099733;28;20501;-69
2021/12/22 08:18:31;;;;;;;39.95;18.67;;;;;;;-1.78;85.17;101300.25;5100287;28;20647;-68
2021/12/22 08:20:56;;;;;;;40.80;18.13;;;;;;;-1.71;85.04;101299.41;5106231;28;20074;-68
2021/12/22 08:23:21;;;;;;;32.08;17.00;;;;;;;-1.63;84.69;101295.94;5105426;28;20111;-69
2021/12/22 08:25:47;;;;;;;43.92;17.58;;;;;;;-1.55;84.34;101294.25;5102094;28;20041;-69
2021/12/22 08:28:12;;;;;;;36.60;17.85;;;;;;;-1.46;83.60;101300.22;5097762;28;20410;-68
2021/12/22 08:30:38;;;;;;;34.50;16.27;;;;;;;-1.35;83.44;101302.78;5098661;28;20093;-70
2021/12/22 08:33:09;;;;;;;33.20;17.77;;;;;;;-1.28;83.25;101299.34;5091811;28;20097;-72
2021/12/22 08:38:50;;;;;;;33.28;17.20;;;;;;;-1.19;82.60;101302.75;5098238;28;20036;-70
2021/12/22 08:41:06;;;;;;;29.70;15.18;;;;;;;-1.01;81.68;101300.13;5102767;28;20188;-70
2021/12/22 08:43:32;;;;;;;28.15;15.63;;;;;;;-0.95;81.36;101294.13;5097076;28;20503;-70
2021/12/22 08:45:57;;;;;;;30.85;15.68;;;;;;;-0.94;81.29;101288.09;5096266;28;20055;-68
2021/12/22 08:48:22;;;;;;;28.45;15.55;;;;;;;-0.93;81.41;101288.09;5105379;28;20439;-70
2021/12/22 08:50:47;;;;;;;30.65;15.85;;;;;;;-0.89;81.34;101287.25;5090141;28;20063;-70
2021/12/22 08:53:13;;;;;;;33.55;16.33;;;;;;;-0.90;81.78;101285.50;5095304;28;20027;-70
2021/12/22 08:55:38;;;;;;;34.42;17.25;;;;;;;-0.94;81.66;101293.25;5092813;28;20044;-71
2021/12/22 08:58:03;;;;;;;30.60;16.48;;;;;;;-0.95;81.56;101287.25;5092415;28;20032;-70
2021/12/22 09:00:31;;;;;;;33.80;16.55;;;;;;;-0.92;82.24;101287.25;5097628;28;20120;-68
2021/12/22 09:02:56;;;;;;;38.97;16.95;;;;;;;-0.91;81.96;101290.66;5109586;28;20088;-70
2021/12/22 09:05:22;;;;;;;35.08;18.08;;;;;;;-0.86;81.49;101286.34;5103516;28;20027;-69
2021/12/22 09:07:48;;;;;;;37.92;18.02;;;;;;;-0.86;81.74;101283.78;5102958;28;20504;-68
2021/12/22 09:10:13;;;;;;;40.13;17.65;;;;;;;-0.82;81.62;101294.06;5101255;28;20484;-69
2021/12/22 09:12:38;;;;;;;35.25;18.02;;;;;;;-0.79;81.57;101285.47;5107684;28;20031;-69
2021/12/22 09:15:04;;;;;;;29.50;16.70;;;;;;;-0.81;81.41;101276.91;5109912;28;20055;-68
2021/12/22 09:17:29;;;;;;;37.10;18.60;;;;;;;-0.87;81.59;101272.63;5108719;28;20060;-67
2021/12/22 09:19:55;;;;;;;29.73;17.15;;;;;;;-0.94;81.76;101275.22;5109964;28;20053;-67
2021/12/22 09:22:21;;;;;;;38.58;17.77;;;;;;;-0.99;82.09;101272.69;5103161;28;20042;-66
2021/12/22 09:24:46;;;;;;;35.30;17.35;;;;;;;-1.03;82.16;101264.13;5108785;28;20099;-68
2021/12/22 09:27:12;;;;;;;37.30;17.40;;;;;;;-1.03;82.04;101265.84;5100247;28;20106;-67
2021/12/22 09:29:39;;;;;;;36.20;18.27;;;;;;;-1.03;82.66;101274.41;5109175;28;20393;-69
2021/12/22 09:32:05;;;;;;;42.92;19.00;;;;;;;-1.00;82.41;101264.09;5102814;28;20047;-69
2021/12/22 09:34:30;;;;;;;36.58;18.63;;;;;;;-0.97;82.08;101263.22;5109502;28;20024;-71
2021/12/22 09:36:56;;;;;;;38.72;18.88;;;;;;;-0.94;82.57;101267.50;5107874;28;20039;-67
2021/12/22 09:39:21;;;;;;;40.17;19.20;;;;;;;-0.95;82.21;101258.94;5107235;28;20074;-67
2021/12/22 09:41:47;;;;;;;45.38;19.00;;;;;;;-0.93;81.64;101261.50;5102845;28;20039;-69
2021/12/22 09:44:12;;;;;;;43.28;20.20;;;;;;;-0.88;81.85;101273.50;5105102;28;20125;-68
2021/12/22 09:46:40;;;;;;;35.15;17.50;;;;;;;-0.85;82.07;101267.50;5108602;28;20039;-67
2021/12/22 09:50:05;;;;;;;34.03;18.05;;;;;;;-0.80;82.37;101260.59;5108607;27;20051;-66
2021/12/22 09:54:59;;;;;;;37.67;18.23;;;;;;;-0.74;82.01;101261.41;5037227;28;20060;-67
2021/12/22 09:57:25;;;;;;;43.13;19.00;;;;;;;-0.73;81.75;101251.97;5085970;28;20071;-66
2021/12/22 09:59:53;;;;;;;32.88;17.45;;;;;;;-0.68;81.99;101250.22;5100213;28;20047;-68
2021/12/22 10:02:20;;;;;;;40.88;18.55;;;;;;;-0.65;81.45;101247.63;5093964;28;20561;-68
2021/12/22 10:04:46;;;;;;;39.33;18.70;;;;;;;-0.62;81.17;101252.78;5094685;28;20040;-67
2021/12/22 10:07:25;;;;;;;34.33;17.15;;;;;;;-0.67;80.95;101243.34;5092437;28;20102;-67
2021/12/22 10:09:52;;;;;;;33.40;16.50;;;;;;;-0.65;81.04;101246.78;5096584;28;20089;-68
2021/12/22 10:12:20;;;;;;;36.55;17.33;;;;;;;-0.62;81.50;101241.63;5095521;28;20485;-68
2021/12/22 10:15:01;;;;;;;35.87;18.90;;;;;;;-0.60;81.50;101234.72;5097235;28;20040;-67
2021/12/22 10:17:36;;;;;;;38.53;18.60;;;;;;;-0.55;81.23;101233.84;5076704;28;20296;-68
2021/12/22 10:20:08;;;;;;;38.95;18.55;;;;;;;-0.55;80.98;101230.41;5090799;28;20052;-68
2021/12/22 10:22:40;;;;;;;40.17;18.50;;;;;;;-0.51;80.79;101226.97;5095500;28;20035;-70
2021/12/22 10:25:21;;;;;;;37.28;17.98;;;;;;;-0.47;80.36;101220.91;5093388;28;20429;-67
2021/12/22 10:28:02;;;;;;;34.85;18.55;;;;;;;-0.45;80.02;101220.91;5093153;28;20024;-67
2021/12/22 10:30:31;;;;;;;39.78;17.45;;;;;;;-0.38;80.14;101215.69;5099522;28;20027;-69
2021/12/22 10:33:11;;;;;;;38.63;18.25;;;;;;;-0.38;79.84;101223.41;5091918;28;20593;-68
2021/12/22 10:35:39;;;;;;;41.05;18.58;;;;;;;-0.37;79.94;101219.13;5094356;28;20513;-69
2021/12/22 10:38:07;;;;;;;;;;;;;;;-0.33;80.45;101231.13;5102095;28;20043;-69
2021/12/22 10:40:38;;;;;;;42.80;17.65;;;;;;;-0.30;79.72;101226.81;5104730;28;19954;-66
2021/12/22 10:43:05;;;;;;;43.97;17.63;;;;;;;-0.29;79.44;101225.09;5107038;28;20121;-69
2021/12/22 10:45:34;;;;;;;40.45;19.00;;;;;;;-0.26;79.90;101215.63;5102117;28;20028;-70
2021/12/22 10:50:52;;;;;;;41.53;18.50;;;;;;;-0.19;79.35;101216.41;5096256;28;20598;-67
2021/12/22 10:53:17;;;;;;;37.72;16.65;;;;;;;-0.16;79.10;101215.53;5104403;28;20504;-68
2021/12/22 10:55:46;;;;;;;38.45;18.13;;;;;;;-0.13;78.90;101218.94;5101873;28;20106;-70
2021/12/22 10:58:28;;;;;;;36.55;17.10;;;;;;;-0.09;78.71;101214.63;5102006;28;20027;-68
2021/12/22 11:01:11;;;;;;;33.55;17.33;;;;;;;-0.08;78.94;101206.00;5100781;28;20051;-70
2021/12/22 11:03:46;;;;;;;34.20;16.00;;;;;;;-0.04;78.39;101207.69;5093933;28;20028;-69
2021/12/22 11:06:20;;;;;;;29.35;16.38;;;;;;;-0.01;78.21;101207.66;5095880;28;20503;-68
2021/12/22 11:08:55;;;;;;;35.72;16.30;;;;;;;0.05;77.64;101202.47;5095351;28;20114;-68
2021/12/22 11:11:21;;;;;;;40.00;16.58;;;;;;;0.04;76.80;101194.72;5099555;28;20066;-68
2021/12/22 11:14:05;;;;;;;35.55;17.30;;;;;;;0.04;76.97;101205.94;5100270;28;20063;-68
2021/12/22 11:16:30;;;;;;;36.85;17.33;;;;;;;0.09;77.53;101188.69;5099087;28;20036;-70
2021/12/22 11:19:08;;;;;;;37.33;17.33;;;;;;;0.17;77.52;101192.03;5093698;28;20107;-71
2021/12/22 11:21:35;;;;;;;38.35;16.50;;;;;;;0.18;77.28;101196.31;5092029;28;20036;-68
2021/12/22 11:24:00;;;;;;;35.42;15.70;;;;;;;0.16;76.33;101185.19;5109179;28;20027;-69
2021/12/22 11:26:25;;;;;;;29.08;14.93;;;;;;;0.15;76.32;101178.31;5093313;28;20032;-69
2021/12/22 11:28:51;;;;;;;32.22;16.05;;;;;;;0.17;76.62;101180.88;5094889;28;20505;-69
2021/12/22 11:31:17;;;;;;;32.95;16.45;;;;;;;0.23;76.65;101173.94;5091033;28;20055;-69
2021/12/22 11:33:45;;;;;;;35.58;16.65;;;;;;;0.30;76.33;101176.44;5087694;28;20039;-68
2021/12/22 11:36:12;;;;;;;39.50;15.23;;;;;;;0.31;75.87;101173.00;5085630;28;20130;-69
2021/12/22 11:38:40;;;;;;;29.10;14.50;;;;;;;0.35;75.36;101165.22;5085075;28;20104;-68
2021/12/22 11:41:12;;;;;;;33.42;16.13;;;;;;;0.38;75.50;101169.50;5090155;28;20065;-67
2021/12/22 11:43:43;;;;;;;30.52;15.32;;;;;;;0.40;75.04;101162.56;5086017;28;21289;-68
2021/12/22 11:46:10;;;;;;;32.45;14.88;;;;;;;0.46;74.94;101163.38;5090183;28;20040;-70